Time;durP1;ratioP1;P1;durP2;ratioP2;P2;SDS_P1;SDS_P2;PMS_P1;PMS_P2;Temp;Humidity;BMP_temperature;BMP_pressure;BME280_temperature;BME280_humidity;BME280_pressure;Samples;Min_cycle;Max_cycle;Signal;HPM_P1;HPM_P2
2023/10/23 00:01:41;;;;;;;18.73;8.57;;;;;;;16.16;78.62;97060.94;5008360;28;20192;-72
2023/10/23 00:04:09;;;;;;;13.17;7.10;;;;;;;16.27;78.36;97055.00;5008110;28;20210;-72
2023/10/23 00:06:37;;;;;;;15.03;7.17;;;;;;;16.40;78.02;97055.00;5007282;28;20237;-71
2023/10/23 00:09:04;;;;;;;16.77;7.00;;;;;;;16.45;77.41;97055.50;5008666;28;20202;-70
2023/10/23 00:11:32;;;;;;;16.93;7.43;;;;;;;16.55;77.10;97046.94;5007328;28;20651;-73
2023/10/23 00:13:59;;;;;;;13.60;6.50;;;;;;;16.29;77.59;97037.44;5008663;28;20319;-72
2023/10/23 00:16:26;;;;;;;9.27;6.63;;;;;;;16.41;77.20;97046.19;5012242;28;20183;-71
2023/10/23 00:18:54;;;;;;;13.40;8.60;;;;;;;16.49;76.74;97047.38;5010672;28;20196;-70
2023/10/23 00:21:21;;;;;;;12.40;6.43;;;;;;;16.54;76.35;97039.22;5008816;28;20211;-70
2023/10/23 00:23:49;;;;;;;16.50;6.33;;;;;;;16.50;76.43;97032.53;5008300;28;20199;-69
2023/10/23 00:26:17;;;;;;;17.10;7.37;;;;;;;16.35;77.05;97038.78;5009239;28;20311;-72
2023/10/23 00:28:49;;;;;;;15.30;7.73;;;;;;;16.24;77.74;97031.66;5007067;28;20238;-72
2023/10/23 00:31:16;;;;;;;16.47;7.17;;;;;;;16.24;77.43;97040.34;5008104;28;20230;-71
2023/10/23 00:33:44;;;;;;;12.20;6.07;;;;;;;16.22;76.81;97023.09;5005895;28;20219;-73
2023/10/23 00:36:11;;;;;;;11.63;6.73;;;;;;;16.43;76.25;97036.47;5008283;28;20789;-78
2023/10/23 00:38:38;;;;;;;12.53;6.57;;;;;;;16.33;75.99;97040.66;5008048;28;20219;-79
2023/10/23 00:41:05;;;;;;;13.50;7.27;;;;;;;16.40;76.07;97034.94;5007972;28;20192;-74
2023/10/23 00:43:34;;;;;;;10.47;5.43;;;;;;;16.00;75.81;96984.53;5008090;28;20204;-75
2023/10/23 00:46:04;;;;;;;17.03;7.60;;;;;;;16.22;76.23;97033.53;5005630;28;20208;-75
2023/10/23 00:48:32;;;;;;;14.83;7.00;;;;;;;16.14;76.37;97046.31;5008230;28;20670;-76
2023/10/23 00:51:00;;;;;;;11.83;6.30;;;;;;;16.19;76.24;97039.00;5005398;28;20618;-72
2023/10/23 00:53:32;;;;;;;17.70;7.90;;;;;;;16.10;76.72;97044.84;5011562;28;20220;-71
2023/10/23 00:56:03;;;;;;;20.17;7.77;;;;;;;15.85;77.72;97058.69;5012502;28;20201;-70
2023/10/23 00:58:32;;;;;;;20.63;7.40;;;;;;;15.72;78.52;97060.47;5012529;28;20223;-70
2023/10/23 01:01:01;;;;;;;16.87;7.90;;;;;;;15.88;78.20;97063.75;5011417;28;20734;-71
2023/10/23 01:03:28;;;;;;;19.13;7.80;;;;;;;15.82;78.00;97073.75;5009929;28;20264;-70
2023/10/23 01:05:55;;;;;;;17.10;7.47;;;;;;;15.82;78.06;97060.69;5007887;28;20238;-73
2023/10/23 01:08:22;;;;;;;18.77;7.63;;;;;;;15.71;78.30;97069.22;5007048;28;20205;-70
2023/10/23 01:10:50;;;;;;;19.13;7.80;;;;;;;15.67;78.13;97069.53;5007797;28;20199;-70
2023/10/23 01:13:17;;;;;;;16.83;7.60;;;;;;;15.34;79.81;97059.47;5005443;28;20317;-74
2023/10/23 01:15:44;;;;;;;15.63;7.90;;;;;;;15.37;79.51;97057.47;5022040;28;20251;-73
2023/10/23 01:18:11;;;;;;;19.37;7.50;;;;;;;15.30;79.88;97066.66;5007677;28;20250;-71
2023/10/23 01:20:40;;;;;;;17.00;6.77;;;;;;;15.37;79.99;97069.72;5005267;28;20680;-71
2023/10/23 01:23:08;;;;;;;19.53;7.03;;;;;;;15.37;79.83;97069.72;5007772;28;20278;-70
2023/10/23 01:25:35;;;;;;;15.97;6.83;;;;;;;15.29;79.31;97071.97;5005149;28;20737;-71
2023/10/23 01:28:02;;;;;;;15.40;7.57;;;;;;;15.37;79.06;97072.31;5007279;28;20223;-70
2023/10/23 01:30:29;;;;;;;15.30;7.20;;;;;;;15.55;78.46;97073.78;5006408;28;20202;-73
2023/10/23 01:32:56;;;;;;;13.47;7.43;;;;;;;15.61;77.77;97077.75;5007009;28;20584;-72
2023/10/23 01:35:24;;;;;;;16.00;7.37;;;;;;;15.62;76.89;97059.38;5007005;28;20280;-71
2023/10/23 01:37:51;;;;;;;19.10;8.17;;;;;;;15.89;75.78;97078.44;5006537;28;20217;-71
2023/10/23 01:40:19;;;;;;;14.37;8.07;;;;;;;15.87;75.77;97074.25;5007340;28;20218;-71
2023/10/23 01:42:49;;;;;;;14.77;7.47;;;;;;;15.92;75.64;97077.41;5006233;28;20592;-77
2023/10/23 01:45:18;;;;;;;16.70;7.53;;;;;;;15.62;77.23;97071.59;5006027;28;20868;-70
2023/10/23 01:47:46;;;;;;;19.97;8.43;;;;;;;15.42;78.84;97076.34;5006261;28;20235;-70
2023/10/23 01:50:13;;;;;;;12.33;7.03;;;;;;;15.56;78.34;97075.44;5006792;28;20862;-70
2023/10/23 01:52:41;;;;;;;17.53;7.77;;;;;;;15.73;77.64;97080.41;5006874;28;20189;-70
2023/10/23 01:55:08;;;;;;;16.83;6.90;;;;;;;15.94;76.02;97071.16;5006380;28;20200;-72
2023/10/23 01:57:35;;;;;;;14.17;7.80;;;;;;;15.94;75.70;97063.31;5007099;28;20924;-70
2023/10/23 02:00:04;;;;;;;13.20;7.00;;;;;;;15.93;75.46;97064.25;5004728;28;20305;-70
2023/10/23 02:02:42;;;;;;;11.90;6.93;;;;;;;15.83;75.49;97073.63;5005609;28;20617;-70
2023/10/23 02:05:10;;;;;;;14.50;7.33;;;;;;;15.93;75.36;97077.31;5006293;28;20854;-69
2023/10/23 02:07:37;;;;;;;10.40;6.90;;;;;;;15.94;75.42;97076.38;5006619;28;20223;-72
2023/10/23 02:10:05;;;;;;;16.40;7.00;;;;;;;15.93;75.73;97084.34;5006710;28;20199;-70
2023/10/23 02:12:35;;;;;;;13.20;6.77;;;;;;;16.15;74.61;97080.19;5005725;28;20200;-70
2023/10/23 02:15:05;;;;;;;16.67;7.53;;;;;;;16.01;74.75;97075.03;5006944;28;20227;-71
2023/10/23 02:17:33;;;;;;;15.97;8.30;;;;;;;15.86;75.00;97083.06;5008088;28;20187;-70
2023/10/23 02:20:01;;;;;;;18.37;7.03;;;;;;;15.75;75.17;97075.06;5009353;28;20192;-71
2023/10/23 02:22:28;;;;;;;13.57;7.27;;;;;;;15.19;77.07;97073.47;5008225;28;20651;-70
2023/10/23 02:24:55;;;;;;;16.53;7.27;;;;;;;15.13;77.56;97058.22;5009891;28;20506;-69
2023/10/23 02:27:23;;;;;;;13.97;6.47;;;;;;;15.24;77.12;97061.84;5009780;28;20228;-69
2023/10/23 02:29:50;;;;;;;10.97;7.03;;;;;;;15.27;77.48;97082.50;5009317;28;20694;-69
2023/10/23 02:32:17;;;;;;;19.13;7.27;;;;;;;15.52;76.51;97079.19;5009005;28;20199;-70
2023/10/23 02:34:44;;;;;;;14.60;6.83;;;;;;;15.42;76.38;97080.69;5009038;28;20197;-70
2023/10/23 02:37:16;;;;;;;14.67;7.80;;;;;;;15.50;75.91;97088.06;5008809;28;20199;-71
2023/10/23 02:39:43;;;;;;;15.40;7.30;;;;;;;15.61;75.17;97089.03;5009323;28;20209;-71
2023/10/23 02:42:10;;;;;;;14.53;7.10;;;;;;;15.51;75.85;97087.97;5010070;28;20586;-71
2023/10/23 02:44:37;;;;;;;15.50;7.17;;;;;;;15.53;75.74;97083.47;5008420;28;20295;-75
2023/10/23 02:47:04;;;;;;;22.47;6.83;;;;;;;15.51;75.18;97092.34;5009129;28;20235;-71
2023/10/23 02:49:31;;;;;;;16.00;6.60;;;;;;;15.51;74.82;97080.13;5009924;28;20287;-70
2023/10/23 02:51:58;;;;;;;15.20;6.33;;;;;;;15.49;75.02;97087.22;5008810;28;20202;-72
2023/10/23 02:54:25;;;;;;;14.37;7.63;;;;;;;15.67;74.88;97091.25;5008463;28;20216;-70
2023/10/23 02:56:54;;;;;;;14.63;6.73;;;;;;;15.58;75.02;97080.59;5008650;28;20199;-69
2023/10/23 02:59:21;;;;;;;14.90;6.77;;;;;;;15.42;76.17;97085.91;5009531;28;20287;-72
2023/10/23 03:01:48;;;;;;;14.87;6.80;;;;;;;15.29;75.92;97071.97;5009114;28;20221;-68
2023/10/23 03:04:16;;;;;;;16.33;6.93;;;;;;;15.26;76.78;97080.84;5008812;28;20274;-69
2023/10/23 03:06:43;;;;;;;16.60;7.20;;;;;;;15.10;76.90;97071.47;5009362;28;20221;-69
2023/10/23 03:09:11;;;;;;;17.30;6.30;;;;;;;15.33;76.49;97076.88;5008384;28;20203;-69
2023/10/23 03:11:39;;;;;;;13.87;6.60;;;;;;;14.89;77.42;97028.47;5009480;28;20191;-70
2023/10/23 03:14:08;;;;;;;15.60;6.23;;;;;;;15.13;77.73;97076.47;5008174;28;20306;-70
2023/10/23 03:16:35;;;;;;;12.67;6.53;;;;;;;15.02;77.90;97045.84;4999717;28;20363;-69
2023/10/23 03:19:02;;;;;;;18.07;7.27;;;;;;;14.98;79.28;97075.66;4989089;28;20696;-68
2023/10/23 03:21:29;;;;;;;17.87;6.30;;;;;;;15.01;79.96;97078.09;4989514;28;20745;-69
2023/10/23 03:23:56;;;;;;;16.10;6.17;;;;;;;15.07;79.59;97077.72;4987972;28;20208;-69
2023/10/23 03:26:24;;;;;;;14.23;6.10;;;;;;;15.14;79.46;97078.16;4987149;28;20629;-70
2023/10/23 03:28:51;;;;;;;15.07;6.53;;;;;;;15.26;79.18;97080.84;4988094;28;20295;-73
2023/10/23 03:31:18;;;;;;;11.27;5.77;;;;;;;15.38;78.31;97076.59;4988399;28;20295;-79
2023/10/23 03:33:46;;;;;;;13.30;6.70;;;;;;;15.35;78.45;97071.59;5000586;28;20209;-76
2023/10/23 03:36:13;;;;;;;17.53;6.80;;;;;;;15.39;78.20;97083.50;5008025;28;20260;-79
2023/10/23 03:38:40;;;;;;;15.53;7.03;;;;;;;15.26;78.74;97080.00;5008600;28;20738;-69
2023/10/23 03:41:07;;;;;;;18.43;8.03;;;;;;;15.25;79.00;97065.28;5008525;28;20191;-75
2023/10/23 03:43:35;;;;;;;17.03;6.97;;;;;;;15.29;78.97;97074.59;5006365;28;20301;-75
2023/10/23 03:46:04;;;;;;;14.60;6.10;;;;;;;15.32;78.52;97077.00;5009316;28;20192;-75
2023/10/23 03:48:37;;;;;;;12.53;6.13;;;;;;;15.48;77.65;97067.28;4993855;28;20230;-74
2023/10/23 03:51:04;;;;;;;12.67;6.57;;;;;;;15.41;77.49;97055.53;5008114;28;20208;-71
2023/10/23 03:53:32;;;;;;;16.73;7.20;;;;;;;15.60;76.56;97082.13;4996493;28;20543;-75
2023/10/23 03:55:59;;;;;;;14.73;7.10;;;;;;;15.77;75.09;97086.25;4998303;28;20203;-70
2023/10/23 03:58:27;;;;;;;15.67;6.37;;;;;;;15.67;75.18;97095.63;4998771;28;20752;-68
2023/10/23 04:00:54;;;;;;;15.53;6.77;;;;;;;15.48;75.41;97083.78;4996161;28;20719;-69
2023/10/23 04:03:22;;;;;;;16.63;7.20;;;;;;;15.44;75.32;97086.66;4998951;28;20268;-75
2023/10/23 04:05:51;;;;;;;22.00;7.70;;;;;;;15.56;74.92;97091.09;5006827;28;20579;-69
2023/10/23 04:08:23;;;;;;;23.83;7.23;;;;;;;15.52;74.36;97094.03;5008020;28;20259;-78
2023/10/23 04:10:50;;;;;;;18.37;7.40;;;;;;;15.51;73.68;97085.34;5007353;28;20732;-79
2023/10/23 04:13:17;;;;;;;15.93;6.60;;;;;;;15.28;74.84;97080.72;5006728;28;20227;-69
2023/10/23 04:15:57;;;;;;;15.70;7.53;;;;;;;14.97;76.50;97081.00;5006555;28;20206;-73
2023/10/23 04:18:26;;;;;;;15.07;7.00;;;;;;;14.63;77.81;97090.88;4991469;28;20203;-70
2023/10/23 04:21:03;;;;;;;17.37;7.37;;;;;;;14.68;77.82;97088.00;4997574;28;20329;-72
2023/10/23 04:23:31;;;;;;;19.70;7.83;;;;;;;14.68;78.04;97088.00;4995653;28;20667;-69
2023/10/23 04:25:59;;;;;;;18.80;8.33;;;;;;;14.47;79.29;97089.28;4997534;28;20287;-73
2023/10/23 04:28:26;;;;;;;22.97;9.03;;;;;;;14.50;79.74;97092.56;4998263;28;20234;-71
2023/10/23 04:30:55;;;;;;;20.23;8.73;;;;;;;14.26;80.91;97099.19;5004175;28;20298;-72
2023/10/23 04:33:23;;;;;;;13.73;7.23;;;;;;;14.33;81.16;97095.34;5007855;28;20219;-71
2023/10/23 04:35:52;;;;;;;14.93;7.83;;;;;;;14.22;81.65;97091.69;5006880;28;20195;-70
2023/10/23 04:38:20;;;;;;;16.17;7.23;;;;;;;14.14;82.33;97107.75;5007345;28;20238;-69
2023/10/23 04:40:48;;;;;;;12.20;6.23;;;;;;;14.01;82.96;97105.97;5006848;28;20230;-70
2023/10/23 04:43:15;;;;;;;20.67;7.70;;;;;;;14.15;83.35;97109.44;5007679;28;20183;-68
2023/10/23 04:45:42;;;;;;;17.17;7.47;;;;;;;14.21;82.86;97101.25;5006608;28;20191;-71
2023/10/23 04:48:09;;;;;;;21.50;7.80;;;;;;;14.32;81.80;97087.63;5006983;28;20231;-68
2023/10/23 04:50:38;;;;;;;21.90;8.23;;;;;;;14.55;81.57;97105.31;5006966;28;20200;-70
2023/10/23 04:53:06;;;;;;;19.03;7.03;;;;;;;14.70;80.46;97112.22;5006161;28;20195;-69
2023/10/23 04:55:38;;;;;;;14.77;7.60;;;;;;;14.88;79.72;97118.91;5007171;28;20199;-70
2023/10/23 04:58:06;;;;;;;14.50;8.13;;;;;;;14.89;78.88;97117.13;5005969;28;20233;-72
2023/10/23 05:00:36;;;;;;;13.70;6.43;;;;;;;14.78;79.24;97127.38;5007341;28;20234;-69
2023/10/23 05:03:03;;;;;;;16.73;7.47;;;;;;;14.92;79.69;97130.00;5006602;28;20242;-68
2023/10/23 05:05:31;;;;;;;12.93;7.23;;;;;;;14.94;79.13;97131.56;5006816;28;20273;-70
2023/10/23 05:07:59;;;;;;;15.13;7.37;;;;;;;14.97;78.65;97133.16;5006990;28;20228;-74
2023/10/23 05:10:27;;;;;;;17.90;6.90;;;;;;;14.87;79.33;97129.44;5006175;28;20199;-69
2023/10/23 05:12:54;;;;;;;16.27;8.10;;;;;;;14.97;79.09;97135.75;5007130;28;20287;-70
2023/10/23 05:15:21;;;;;;;20.03;7.50;;;;;;;14.89;78.92;97132.78;5006081;28;20226;-76
2023/10/23 05:17:48;;;;;;;17.07;6.83;;;;;;;15.02;78.46;97142.34;5007196;28;20253;-74
2023/10/23 05:20:16;;;;;;;18.60;7.13;;;;;;;14.93;78.37;97121.22;5006079;28;20239;-71
2023/10/23 05:22:44;;;;;;;18.27;8.10;;;;;;;15.14;77.48;97132.94;5006903;28;21036;-70
2023/10/23 05:25:11;;;;;;;19.43;7.37;;;;;;;15.31;77.64;97137.97;5006747;28;20290;-69
2023/10/23 05:27:38;;;;;;;19.07;8.23;;;;;;;15.44;77.00;97144.09;5005841;28;20227;-71
2023/10/23 05:30:06;;;;;;;27.70;9.87;;;;;;;15.54;76.69;97152.19;5007118;28;20773;-77
2023/10/23 05:32:35;;;;;;;32.97;11.37;;;;;;;15.79;75.71;97155.72;5005735;28;20577;-71
2023/10/23 05:35:03;;;;;;;32.37;9.33;;;;;;;15.90;74.78;97158.50;5007316;28;20187;-69
2023/10/23 05:37:34;;;;;;;27.07;11.67;;;;;;;15.81;74.63;97161.69;5004661;28;20949;-70
2023/10/23 05:40:04;;;;;;;25.87;9.03;;;;;;;15.90;74.30;97158.50;5006516;28;20200;-71
2023/10/23 05:42:33;;;;;;;19.97;7.63;;;;;;;15.88;74.09;97157.75;5006629;28;20306;-69
2023/10/23 05:45:02;;;;;;;19.83;7.27;;;;;;;15.82;73.73;97145.09;5005782;28;20192;-69
2023/10/23 05:47:32;;;;;;;26.77;9.10;;;;;;;15.78;74.38;97169.75;5007173;28;20587;-70
2023/10/23 05:49:59;;;;;;;28.17;9.70;;;;;;;15.79;74.55;97166.19;5004180;28;20187;-69
2023/10/23 05:52:26;;;;;;;23.27;9.73;;;;;;;15.87;74.04;97173.50;5010346;28;20207;-70
2023/10/23 05:54:53;;;;;;;21.67;10.90;;;;;;;15.93;73.12;97184.41;5009595;28;20191;-69
2023/10/23 05:57:20;;;;;;;22.40;9.20;;;;;;;16.02;73.01;97178.59;5010421;28;20263;-69
2023/10/23 05:59:47;;;;;;;20.87;8.57;;;;;;;15.82;73.26;97186.88;5010294;28;20303;-69
2023/10/23 06:02:15;;;;;;;19.60;8.07;;;;;;;15.69;73.40;97172.09;5009020;28;20428;-69
2023/10/23 06:04:43;;;;;;;16.47;8.00;;;;;;;15.88;73.06;97193.47;5010164;28;20710;-74
2023/10/23 06:07:11;;;;;;;23.40;8.80;;;;;;;16.00;72.69;97185.69;5009028;28;20718;-71
2023/10/23 06:09:40;;;;;;;25.37;9.20;;;;;;;16.12;72.16;97187.50;5009899;28;20250;-69
2023/10/23 06:12:09;;;;;;;33.60;9.13;;;;;;;16.15;72.38;97176.88;5007328;28;20214;-69
2023/10/23 06:14:39;;;;;;;18.97;9.17;;;;;;;16.47;71.70;97193.00;5009205;28;20229;-69
2023/10/23 06:17:06;;;;;;;18.03;8.53;;;;;;;16.69;70.88;97193.28;5009927;28;20662;-70
2023/10/23 06:19:36;;;;;;;23.70;8.37;;;;;;;16.81;71.06;97196.84;5009152;28;20817;-73
2023/10/23 06:22:04;;;;;;;19.13;7.73;;;;;;;16.98;70.43;97196.53;5009839;28;20203;-70
2023/10/23 06:24:31;;;;;;;21.27;9.20;;;;;;;17.08;70.19;97192.34;5008597;28;20195;-71
2023/10/23 06:26:58;;;;;;;21.43;10.47;;;;;;;17.04;69.95;97198.75;5009850;28;20197;-70
2023/10/23 06:29:25;;;;;;;22.77;9.50;;;;;;;16.89;70.67;97190.16;5007643;28;20672;-71
2023/10/23 06:31:55;;;;;;;24.57;8.97;;;;;;;16.81;70.69;97205.53;5009530;28;20201;-69
2023/10/23 06:34:22;;;;;;;28.40;10.87;;;;;;;16.81;71.38;97207.31;5009218;28;20655;-70
2023/10/23 06:36:49;;;;;;;20.53;9.93;;;;;;;16.83;71.49;97208.03;5008425;28;20602;-69
2023/10/23 06:39:16;;;;;;;21.03;9.20;;;;;;;16.63;71.80;97187.63;5009225;28;20751;-69
2023/10/23 06:41:43;;;;;;;23.70;9.63;;;;;;;16.78;72.22;97197.88;5008317;28;20659;-70
2023/10/23 06:44:10;;;;;;;21.47;8.00;;;;;;;16.61;73.38;97198.19;5009550;28;20609;-70
2023/10/23 06:46:37;;;;;;;18.23;9.07;;;;;;;16.72;73.51;97205.31;5008333;28;20231;-75
2023/10/23 06:49:05;;;;;;;20.30;8.50;;;;;;;16.99;73.14;97199.06;5009178;28;20236;-69
2023/10/23 06:51:32;;;;;;;20.50;7.93;;;;;;;17.07;72.93;97207.22;5008235;28;20217;-71
2023/10/23 06:53:59;;;;;;;16.60;7.63;;;;;;;17.24;72.66;97197.34;5007488;28;20676;-68
2023/10/23 06:56:26;;;;;;;22.93;7.87;;;;;;;17.29;72.58;97209.16;5009073;28;20212;-72
2023/10/23 06:58:53;;;;;;;21.47;8.17;;;;;;;17.51;71.99;97205.91;5008043;28;20197;-71
2023/10/23 07:01:20;;;;;;;16.17;7.47;;;;;;;17.50;71.92;97185.91;5008827;28;20197;-70
2023/10/23 07:04:07;;;;;;;22.90;7.13;;;;;;;17.69;71.80;97186.28;5007587;28;20202;-70
2023/10/23 07:06:34;;;;;;;15.00;6.63;;;;;;;17.85;70.83;97173.72;5008704;28;20189;-73
2023/10/23 07:09:01;;;;;;;16.37;6.23;;;;;;;18.10;70.33;97199.00;5008229;28;20252;-74
2023/10/23 07:11:29;;;;;;;16.27;6.83;;;;;;;18.31;69.93;97205.28;5008205;28;20647;-73
2023/10/23 07:13:55;;;;;;;17.33;6.73;;;;;;;18.37;69.34;97207.44;5008551;28;20327;-73
2023/10/23 07:16:23;;;;;;;22.40;7.07;;;;;;;18.38;68.99;97203.91;5006005;28;20585;-71
2023/10/23 07:18:50;;;;;;;15.43;6.77;;;;;;;18.16;68.82;97149.56;5008691;28;20182;-72
2023/10/23 07:21:18;;;;;;;20.67;8.10;;;;;;;18.39;68.71;97184.56;5007054;28;20289;-70
2023/10/23 07:23:45;;;;;;;20.60;7.00;;;;;;;18.51;68.40;97186.31;5008038;28;20223;-79
2023/10/23 07:26:14;;;;;;;15.60;5.80;;;;;;;18.64;68.76;97189.69;5007408;28;20248;-74
2023/10/23 07:28:42;;;;;;;16.50;6.97;;;;;;;18.93;67.72;97211.09;5006667;28;20719;-75
2023/10/23 07:31:10;;;;;;;15.93;6.87;;;;;;;19.14;67.04;97209.47;5008680;28;20199;-77
2023/10/23 07:33:38;;;;;;;20.43;6.57;;;;;;;19.16;66.50;97199.66;5009532;28;20198;-72
2023/10/23 07:36:07;;;;;;;19.90;6.80;;;;;;;19.37;65.75;97203.28;5014401;28;20294;-74
2023/10/23 07:38:36;;;;;;;29.40;9.57;;;;;;;19.48;65.83;97192.75;5011702;28;20598;-72
2023/10/23 07:41:03;;;;;;;24.80;9.77;;;;;;;19.71;65.45;97191.78;5013685;28;20702;-75
2023/10/23 07:43:30;;;;;;;19.00;8.07;;;;;;;19.60;64.88;97167.31;5010345;28;20650;-77
2023/10/23 07:46:03;;;;;;;23.77;8.13;;;;;;;19.81;64.80;97176.09;5008727;28;20592;-73
2023/10/23 07:48:42;;;;;;;15.53;6.87;;;;;;;19.85;63.94;97177.53;5009380;28;20317;-76
2023/10/23 07:51:09;;;;;;;17.53;7.70;;;;;;;19.85;63.64;97159.97;5005521;28;20202;-72
2023/10/23 07:53:36;;;;;;;19.30;6.47;;;;;;;20.02;63.02;97166.50;5008301;28;20207;-70
2023/10/23 07:56:06;;;;;;;17.30;6.87;;;;;;;20.11;62.76;97160.50;5006880;28;20199;-72
2023/10/23 07:58:34;;;;;;;21.30;9.07;;;;;;;20.22;62.70;97173.59;5008185;28;20187;-76
2023/10/23 08:01:05;;;;;;;16.30;7.83;;;;;;;20.46;61.89;97173.41;5007250;28;20641;-72
2023/10/23 08:03:34;;;;;;;27.57;10.30;;;;;;;20.48;61.42;97153.06;5007451;28;20574;-75
2023/10/23 08:06:07;;;;;;;27.40;10.37;;;;;;;20.52;60.97;97157.94;5007891;28;20262;-74
2023/10/23 08:08:36;;;;;;;26.77;10.63;;;;;;;20.72;60.44;97167.63;5006573;28;20299;-72
2023/10/23 08:11:04;;;;;;;28.93;11.27;;;;;;;20.85;59.88;97156.88;5008403;28;20652;-75
2023/10/23 08:13:32;;;;;;;27.77;10.30;;;;;;;20.82;59.88;97171.13;5006423;28;20737;-74
2023/10/23 08:15:59;;;;;;;23.53;11.37;;;;;;;20.94;59.75;97175.34;5010390;28;20192;-73
2023/10/23 08:18:27;;;;;;;24.93;12.23;;;;;;;20.85;59.76;97173.53;5011221;28;20232;-77
2023/10/23 08:21:15;;;;;;;28.33;11.40;;;;;;;21.02;59.29;97158.94;5008105;28;20576;-77
2023/10/23 08:23:54;;;;;;;21.40;9.07;;;;;;;20.95;59.94;97163.88;5009498;28;20765;-75
2023/10/23 08:26:21;;;;;;;22.00;8.40;;;;;;;21.03;59.74;97156.19;5008274;28;20203;-70
2023/10/23 08:28:49;;;;;;;19.37;8.30;;;;;;;20.47;59.24;97025.06;5007353;28;20238;-72
2023/10/23 08:31:28;;;;;;;18.90;7.60;;;;;;;21.35;58.96;97165.75;5007018;28;20205;-70
2023/10/23 08:34:07;;;;;;;22.67;6.93;;;;;;;21.43;58.00;97137.75;5006545;28;20204;-72
2023/10/23 08:36:35;;;;;;;20.77;7.57;;;;;;;21.69;57.30;97156.53;5006093;28;20203;-70
2023/10/23 08:39:03;;;;;;;16.40;5.97;;;;;;;21.68;57.06;97125.88;5005952;28;20198;-72
2023/10/23 08:41:31;;;;;;;23.07;7.37;;;;;;;21.86;56.28;97132.19;5007333;28;20197;-69
2023/10/23 08:43:59;;;;;;;16.37;5.73;;;;;;;22.14;55.58;97141.91;5006127;28;20682;-71
2023/10/23 08:46:31;;;;;;;21.57;5.33;;;;;;;22.18;55.38;97142.47;5007161;28;20297;-71
2023/10/23 08:49:01;;;;;;;14.47;5.27;;;;;;;22.30;54.12;97144.81;5005471;28;20631;-74
2023/10/23 08:51:34;;;;;;;17.73;5.37;;;;;;;22.36;53.64;97144.25;5006419;28;20649;-70
2023/10/23 08:54:12;;;;;;;21.97;6.90;;;;;;;22.54;52.73;97145.25;5007151;28;20239;-74
2023/10/23 08:56:42;;;;;;;24.77;7.20;;;;;;;22.76;52.50;97138.84;5005763;28;20207;-72
2023/10/23 08:59:12;;;;;;;17.93;5.70;;;;;;;22.67;52.66;97141.50;5006873;28;20306;-73
2023/10/23 09:01:40;;;;;;;20.03;7.03;;;;;;;22.84;52.69;97138.94;5005637;28;20199;-77
2023/10/23 09:04:10;;;;;;;17.03;7.67;;;;;;;22.99;52.24;97131.41;5005859;28;20194;-70
2023/10/23 09:06:38;;;;;;;15.13;6.53;;;;;;;23.13;51.17;97144.97;5004915;28;20265;-71
2023/10/23 09:09:06;;;;;;;22.97;7.97;;;;;;;23.26;51.02;97137.56;5004653;28;20680;-71
2023/10/23 09:11:45;;;;;;;21.63;7.00;;;;;;;23.26;51.74;97132.28;5006611;28;20335;-70
2023/10/23 09:14:25;;;;;;;18.13;7.03;;;;;;;23.22;50.73;97143.28;5003837;28;20231;-71
2023/10/23 09:16:55;;;;;;;15.63;5.80;;;;;;;23.41;49.88;97144.03;5004830;28;20259;-76
2023/10/23 09:19:38;;;;;;;17.07;5.63;;;;;;;23.77;48.87;97134.38;5006664;28;20586;-75
2023/10/23 09:22:12;;;;;;;20.60;6.67;;;;;;;23.83;48.37;97122.38;5005452;28;20718;-70
2023/10/23 09:24:40;;;;;;;22.07;6.30;;;;;;;23.93;48.39;97123.97;5005162;28;20285;-74
2023/10/23 09:27:07;;;;;;;15.83;6.13;;;;;;;24.12;47.97;97117.72;5009040;28;20623;-73
2023/10/23 09:29:35;;;;;;;21.13;5.93;;;;;;;24.28;47.86;97123.16;5009254;28;20783;-76
2023/10/23 09:32:02;;;;;;;12.93;5.03;;;;;;;24.22;46.92;97123.78;5009769;28;20213;-75
2023/10/23 09:34:31;;;;;;;22.03;4.90;;;;;;;24.19;47.16;97109.00;5008450;28;20243;-77
2023/10/23 09:36:58;;;;;;;24.17;10.43;;;;;;;24.46;46.42;97107.25;5008557;28;20681;-78
2023/10/23 09:39:26;;;;;;;21.27;7.50;;;;;;;24.17;47.46;97086.34;5009156;28;20585;-77
2023/10/23 09:41:53;;;;;;;21.80;8.03;;;;;;;24.55;46.01;97098.38;5010289;28;20309;-75
2023/10/23 09:44:24;;;;;;;23.73;8.93;;;;;;;24.37;46.51;97079.88;5005527;28;20716;-78
2023/10/23 09:46:57;;;;;;;17.70;6.37;;;;;;;24.64;45.91;97097.47;4996234;28;20236;-73
2023/10/23 09:49:25;;;;;;;18.67;5.70;;;;;;;24.74;45.44;97106.16;5009254;28;20620;-76
2023/10/23 09:51:59;;;;;;;24.43;5.47;;;;;;;24.40;44.44;97025.81;5007582;28;20210;-74
2023/10/23 09:54:31;;;;;;;18.67;6.23;;;;;;;24.76;43.74;97075.03;4991451;28;20207;-73
2023/10/23 09:57:03;;;;;;;24.60;6.23;;;;;;;24.94;43.82;97091.69;4989643;28;20595;-76
2023/10/23 09:59:57;;;;;;;24.27;6.80;;;;;;;24.93;42.68;97056.44;4990815;28;20205;-73
2023/10/23 10:02:29;;;;;;;19.13;6.03;;;;;;;25.08;43.53;97058.50;4991533;28;20206;-76
2023/10/23 10:05:05;;;;;;;18.40;6.03;;;;;;;25.24;43.16;97077.94;5009780;28;20718;-75
2023/10/23 10:07:45;;;;;;;18.87;5.60;;;;;;;25.46;42.68;97077.38;5010007;28;20214;-77
2023/10/23 10:10:12;;;;;;;16.60;6.13;;;;;;;25.46;42.30;97072.09;5008683;28;20234;-74
2023/10/23 10:12:41;;;;;;;23.57;6.20;;;;;;;25.55;41.77;97071.13;5009767;28;20198;-74
2023/10/23 10:15:09;;;;;;;20.50;5.60;;;;;;;25.51;42.38;97063.66;5007245;28;20636;-73
2023/10/23 10:17:37;;;;;;;30.97;7.20;;;;;;;25.73;42.03;97069.19;5009299;28;20334;-73
2023/10/23 10:20:10;;;;;;;17.40;5.23;;;;;;;25.73;41.84;97065.69;5009693;28;20609;-77
2023/10/23 10:22:40;;;;;;;18.27;5.23;;;;;;;25.70;41.44;97060.69;5008774;28;20282;-74
2023/10/23 10:25:12;;;;;;;17.13;5.27;;;;;;;25.66;41.36;97038.13;5009893;28;20219;-74
2023/10/23 10:27:39;;;;;;;16.10;5.50;;;;;;;25.84;40.94;97057.41;5008753;28;20206;-71
2023/10/23 10:30:37;;;;;;;21.00;5.90;;;;;;;25.54;40.73;97015.56;5012243;28;20311;-72
2023/10/23 10:33:14;;;;;;;24.00;6.23;;;;;;;26.06;40.69;97053.28;4989649;28;20215;-71
2023/10/23 10:36:05;;;;;;;20.87;5.87;;;;;;;26.18;40.13;97042.19;4988604;28;20192;-74
2023/10/23 10:38:34;;;;;;;18.47;5.30;;;;;;;26.20;40.20;97042.84;4990219;28;20203;-75
2023/10/23 10:41:05;;;;;;;19.97;5.73;;;;;;;25.79;40.55;97012.78;4988731;28;20212;-75
2023/10/23 10:43:34;;;;;;;15.47;5.43;;;;;;;25.94;39.90;97031.56;4989780;28;20192;-74
2023/10/23 10:46:05;;;;;;;17.63;5.23;;;;;;;25.89;40.51;97031.22;4989401;28;20283;-72
2023/10/23 10:48:44;;;;;;;19.17;5.00;;;;;;;25.69;41.11;97005.97;4988374;28;20204;-74
2023/10/23 10:51:22;;;;;;;18.43;4.90;;;;;;;25.93;40.56;97006.00;4989122;28;20218;-75
2023/10/23 10:53:58;;;;;;;21.23;6.23;;;;;;;25.89;40.58;97025.06;4987446;28;20180;-75
2023/10/23 10:56:25;;;;;;;18.03;4.67;;;;;;;25.75;40.94;97005.31;4989842;28;20206;-73
2023/10/23 10:58:52;;;;;;;20.17;4.97;;;;;;;25.73;40.21;97016.09;4987708;28;20192;-70
2023/10/23 11:01:24;;;;;;;18.90;5.33;;;;;;;25.64;40.01;97019.72;4988584;28;20231;-74
2023/10/23 11:03:52;;;;;;;19.70;5.53;;;;;;;25.77;39.96;97004.16;4987601;28;20200;-74
2023/10/23 11:06:19;;;;;;;22.87;5.70;;;;;;;25.93;39.79;97013.13;4988220;28;20195;-75
2023/10/23 11:08:47;;;;;;;24.37;6.57;;;;;;;26.10;39.53;97017.47;4988877;28;20746;-72
2023/10/23 11:11:14;;;;;;;23.23;6.30;;;;;;;26.22;39.44;97002.84;4987891;28;20702;-72
2023/10/23 11:13:41;;;;;;;26.53;5.17;;;;;;;26.28;38.45;97012.81;4987688;28;20302;-72
2023/10/23 11:16:08;;;;;;;23.77;5.30;;;;;;;26.32;38.30;97006.16;4988368;28;20203;-72
2023/10/23 11:18:36;;;;;;;23.40;6.07;;;;;;;26.31;38.21;97007.16;4987158;28;20275;-72
2023/10/23 11:21:05;;;;;;;22.77;4.83;;;;;;;26.52;37.78;97010.13;4988734;28;20200;-69
2023/10/23 11:23:32;;;;;;;19.87;6.17;;;;;;;26.55;37.82;97007.13;5001199;28;20713;-74
2023/10/23 11:25:59;;;;;;;29.03;5.20;;;;;;;26.55;37.12;97005.28;5008628;28;20205;-74
2023/10/23 11:28:26;;;;;;;21.93;4.90;;;;;;;26.51;36.58;96995.19;5007015;28;20698;-72
2023/10/23 11:30:56;;;;;;;27.40;5.90;;;;;;;26.40;37.81;97000.84;5006580;28;20266;-73
2023/10/23 11:33:24;;;;;;;17.47;5.43;;;;;;;26.01;38.25;96984.75;5006086;28;20191;-77